createdAt,value
2022-12-18T02:54:53.478Z,12.10
2022-12-18T02:57:43.376Z,11.80
2022-12-18T03:00:15.617Z,12.10
2022-12-18T03:02:53.267Z,11.70
2022-12-18T03:05:31.535Z,12.20
2022-12-18T03:08:08.671Z,11.40
2022-12-18T03:10:41.036Z,11.10
2022-12-18T03:13:14.043Z,11.50
2022-12-18T03:15:43.588Z,10.80
2022-12-18T03:18:17.213Z,10.50
2022-12-18T03:20:44.678Z,10.70
2022-12-18T03:23:18.754Z,11.10
2022-12-18T03:25:47.542Z,11.10
2022-12-18T03:28:16.606Z,10.50
2022-12-18T03:30:44.853Z,10.10
2022-12-18T03:33:12.470Z,10.20
2022-12-18T03:35:42.483Z,9.80
2022-12-18T03:38:10.781Z,10.00
2022-12-18T03:40:54.815Z,10.00
2022-12-18T03:43:41.159Z,9.20
2022-12-18T03:46:53.281Z,9.20
2022-12-18T03:49:29.056Z,8.80
2022-12-18T03:52:06.310Z,9.00
2022-12-18T03:54:33.133Z,8.80
2022-12-18T03:57:08.114Z,8.90
2022-12-18T03:59:35.190Z,9.00
2022-12-18T04:02:02.040Z,8.80
2022-12-18T04:04:29.728Z,8.70
2022-12-18T04:06:59.587Z,8.40
2022-12-18T04:09:26.435Z,9.30
2022-12-18T04:11:53.348Z,8.80
2022-12-18T04:14:20.663Z,9.50
2022-12-18T04:16:50.083Z,10.90
2022-12-18T04:19:17.891Z,10.80
2022-12-18T04:21:44.987Z,11.20
2022-12-18T04:24:12.318Z,10.70
2022-12-18T04:26:41.254Z,9.40
2022-12-18T04:29:18.746Z,10.40
2022-12-18T04:31:45.592Z,9.60
2022-12-18T04:34:12.465Z,10.20
2022-12-18T04:36:43.587Z,11.00
2022-12-18T04:39:10.600Z,8.80
2022-12-18T04:41:37.370Z,8.60
2022-12-18T04:44:04.524Z,9.60
2022-12-18T04:46:31.238Z,8.80
2022-12-18T04:48:57.893Z,10.10
2022-12-18T04:51:26.696Z,8.90
2022-12-18T04:53:54.424Z,9.40
2022-12-18T04:56:21.117Z,10.80
2022-12-18T04:58:47.767Z,10.00
2022-12-18T05:01:15.341Z,9.20
2022-12-18T05:03:42.466Z,9.10
2022-12-18T05:06:12.368Z,8.70
2022-12-18T05:08:39.003Z,9.00
2022-12-18T05:11:15.066Z,9.80
2022-12-18T05:13:42.078Z,9.00
2022-12-18T05:16:09.166Z,9.20
2022-12-18T05:18:35.831Z,9.80
2022-12-18T05:21:02.533Z,8.50
2022-12-18T05:23:29.233Z,9.00
2022-12-18T05:26:00.467Z,9.70
2022-12-18T05:28:27.924Z,8.80
2022-12-18T05:31:01.633Z,9.20
2022-12-18T05:33:30.228Z,8.90
2022-12-18T05:35:58.524Z,8.50
2022-12-18T05:38:25.758Z,8.60
2022-12-18T05:40:52.648Z,10.00
2022-12-18T05:43:21.608Z,7.70
2022-12-18T05:45:48.486Z,8.20
2022-12-18T05:48:15.231Z,8.00
2022-12-18T05:50:43.113Z,8.50
2022-12-18T05:53:09.736Z,8.10
2022-12-18T05:55:36.927Z,8.60
2022-12-18T05:58:04.384Z,9.10
2022-12-18T06:00:33.001Z,8.30
2022-12-18T06:03:00.172Z,8.80
2022-12-18T06:05:26.955Z,10.50
2022-12-18T06:07:53.628Z,9.40
2022-12-18T06:10:20.452Z,9.80
2022-12-18T06:12:47.991Z,11.30
2022-12-18T06:15:14.684Z,11.40
2022-12-18T06:17:42.662Z,8.90
2022-12-18T06:20:09.909Z,8.70
2022-12-18T06:22:36.638Z,7.90
2022-12-18T06:25:03.683Z,7.40
2022-12-18T06:27:30.378Z,7.40
2022-12-18T06:29:56.997Z,8.30
2022-12-18T06:32:23.665Z,8.10
2022-12-18T06:34:50.387Z,10.50
2022-12-18T06:37:17.044Z,9.40
2022-12-18T06:39:43.708Z,7.80
2022-12-18T06:42:10.357Z,13.60
2022-12-18T06:44:36.961Z,8.30
2022-12-18T06:47:03.732Z,8.30
2022-12-18T06:49:30.699Z,10.70
2022-12-18T06:51:57.491Z,8.40
2022-12-18T06:54:24.196Z,8.50
2022-12-18T06:56:50.827Z,9.10
2022-12-18T06:59:17.654Z,8.00
2022-12-18T10:42:19.236Z,6.60
2022-12-18T10:44:46.215Z,7.60
2022-12-18T10:47:15.773Z,8.70
2022-12-18T10:49:51.003Z,7.10
2022-12-18T10:52:22.906Z,7.10
2022-12-18T10:54:58.011Z,6.60
2022-12-18T10:57:37.922Z,6.40
2022-12-18T11:00:24.743Z,6.50
2022-12-18T11:02:52.172Z,6.30
2022-12-18T11:05:32.656Z,8.20
2022-12-18T11:08:00.340Z,6.60
2022-12-18T11:10:33.025Z,6.40
2022-12-18T11:13:18.793Z,6.90
2022-12-18T11:15:45.546Z,6.60
2022-12-18T11:18:20.101Z,6.60
2022-12-18T11:21:14.522Z,10.60
2022-12-18T11:26:17.432Z,6.70
2022-12-18T11:28:50.629Z,7.60
2022-12-18T11:31:29.621Z,7.20
2022-12-18T11:36:58.975Z,8.80
2022-12-18T11:39:39.621Z,7.00
2022-12-18T11:42:15.663Z,6.80
2022-12-18T11:45:02.404Z,8.70
2022-12-18T11:47:35.065Z,7.00
2022-12-18T11:50:02.695Z,8.90
2022-12-18T11:52:39.609Z,6.70
2022-12-18T11:55:11.455Z,7.10
2022-12-18T11:57:44.089Z,6.30
2022-12-18T12:06:50.893Z,7.80
2022-12-18T12:09:32.823Z,6.70
2022-12-18T12:12:25.122Z,7.10
2022-12-18T12:15:14.037Z,6.70
2022-12-18T12:17:47.742Z,8.00
2022-12-18T12:20:36.017Z,7.10
2022-12-18T12:23:05.935Z,7.20
2022-12-18T12:25:47.239Z,7.30
2022-12-18T12:28:22.826Z,8.40
2022-12-18T12:31:05.207Z,7.70
2022-12-18T12:33:35.047Z,7.30
2022-12-18T12:36:27.154Z,6.00
2022-12-18T12:38:56.174Z,7.50
2022-12-18T12:41:51.027Z,8.90
2022-12-18T12:44:23.809Z,6.60
2022-12-18T12:46:50.453Z,8.70
2022-12-18T12:49:19.407Z,6.30
2022-12-18T12:51:48.215Z,6.80
2022-12-18T12:54:21.594Z,7.00
2022-12-18T12:57:03.032Z,9.50
2022-12-18T12:59:36.978Z,7.60
2022-12-18T13:04:39.972Z,5.70
2022-12-18T13:07:17.486Z,6.60
2022-12-18T13:10:20.659Z,7.40
2022-12-18T13:13:09.372Z,6.80
2022-12-18T13:15:47.218Z,6.70
2022-12-18T13:18:18.074Z,6.70
2022-12-18T13:20:52.445Z,6.60
2022-12-18T13:23:24.007Z,6.70
2022-12-18T13:25:54.274Z,6.80
2022-12-18T13:28:33.712Z,7.00
2022-12-18T13:31:01.600Z,6.80
2022-12-18T13:33:31.296Z,6.40
2022-12-18T13:36:17.663Z,6.30
2022-12-18T13:38:45.143Z,6.10
2022-12-18T13:41:18.075Z,6.00
2022-12-18T13:43:58.182Z,6.20
2022-12-18T13:46:45.773Z,6.40
2022-12-18T13:49:13.292Z,5.90
2022-12-18T13:51:45.100Z,6.30
2022-12-18T13:54:35.671Z,5.80
2022-12-18T13:57:02.821Z,5.80
2022-12-18T13:59:38.569Z,6.60
2022-12-18T14:02:17.980Z,7.80
2022-12-18T14:04:48.285Z,5.60
2022-12-18T14:07:15.582Z,5.50
2022-12-18T14:09:49.720Z,5.50
2022-12-18T14:12:45.445Z,5.30
2022-12-18T14:15:22.166Z,5.30
2022-12-18T14:17:48.815Z,5.20
2022-12-18T14:20:15.969Z,6.30
2022-12-18T14:22:49.574Z,5.90
2022-12-18T14:25:17.854Z,5.40
2022-12-18T14:27:46.401Z,6.00
2022-12-18T14:30:25.558Z,6.50
2022-12-18T21:02:39.732Z,6.10
2022-12-18T21:05:06.973Z,5.70
2022-12-18T21:07:33.606Z,6.30
2022-12-18T21:10:00.239Z,6.50
2022-12-18T21:12:40.385Z,6.10
2022-12-18T21:15:15.235Z,6.30
2022-12-18T21:17:44.500Z,6.30
2022-12-18T21:20:17.397Z,6.30
2022-12-18T21:22:44.816Z,6.50
2022-12-18T21:25:11.453Z,6.50
2022-12-18T21:27:38.573Z,6.30
2022-12-18T21:30:06.583Z,6.40
2022-12-18T21:32:33.547Z,6.70
2022-12-18T21:35:00.471Z,6.50
2022-12-18T21:37:27.172Z,6.00
2022-12-18T21:39:53.829Z,6.60
2022-12-18T21:42:39.615Z,6.50
2022-12-18T21:45:06.708Z,6.40
2022-12-18T21:47:33.355Z,5.80
2022-12-18T21:50:00.023Z,5.70
2022-12-18T21:52:32.228Z,5.50
2022-12-18T21:55:10.008Z,5.60
2022-12-18T21:57:40.147Z,5.60
2022-12-18T22:00:07.767Z,5.30
2022-12-18T22:02:40.315Z,5.50
2022-12-18T22:05:07.545Z,5.40
2022-12-18T22:07:34.308Z,5.70
2022-12-18T22:10:01.997Z,5.70
2022-12-18T22:12:35.631Z,6.30
2022-12-18T22:15:04.495Z,6.00
2022-12-18T22:17:31.153Z,6.20
2022-12-18T22:19:57.869Z,6.10
2022-12-18T22:22:24.567Z,6.30
2022-12-18T22:24:51.620Z,5.80
2022-12-18T22:27:18.273Z,5.60
